sensor_id;sensor_type;location;lat;lon;timestamp;pressure;altitude;pressure_sealevel;temperature;humidity
22440;BME280;11387;51.612;7.210;2023-05-01T00:01:05;100933.75;;;9.03;66.89
22440;BME280;11387;51.612;7.210;2023-05-01T00:03:34;100938.16;;;8.99;66.58
22440;BME280;11387;51.612;7.210;2023-05-01T00:06:03;100924.25;;;8.96;66.58
22440;BME280;11387;51.612;7.210;2023-05-01T00:08:32;100919.88;;;8.95;66.68
22440;BME280;11387;51.612;7.210;2023-05-01T00:11:03;100918.53;;;8.87;66.92
22440;BME280;11387;51.612;7.210;2023-05-01T00:13:37;100920.50;;;8.82;67.29
22440;BME280;11387;51.612;7.210;2023-05-01T00:16:07;100913.41;;;8.81;66.93
22440;BME280;11387;51.612;7.210;2023-05-01T00:18:36;100914.50;;;8.80;66.79
22440;BME280;11387;51.612;7.210;2023-05-01T00:21:19;100900.06;;;8.74;66.76
22440;BME280;11387;51.612;7.210;2023-05-01T00:23:47;100900.91;;;8.69;67.33
22440;BME280;11387;51.612;7.210;2023-05-01T00:26:16;100896.53;;;8.68;67.23
22440;BME280;11387;51.612;7.210;2023-05-01T00:28:46;100896.81;;;8.67;66.99
22440;BME280;11387;51.612;7.210;2023-05-01T00:31:17;100879.94;;;8.60;67.60
22440;BME280;11387;51.612;7.210;2023-05-01T00:33:47;100878.84;;;8.61;67.34
22440;BME280;11387;51.612;7.210;2023-05-01T00:36:16;100884.84;;;8.63;66.94
22440;BME280;11387;51.612;7.210;2023-05-01T00:38:45;100875.84;;;8.57;67.23
22440;BME280;11387;51.612;7.210;2023-05-01T00:41:13;100887.06;;;8.51;67.47
22440;BME280;11387;51.612;7.210;2023-05-01T00:43:42;100878.34;;;8.49;67.77
22440;BME280;11387;51.612;7.210;2023-05-01T00:46:12;100876.75;;;8.37;67.86
22440;BME280;11387;51.612;7.210;2023-05-01T00:48:41;100875.38;;;8.40;68.26
22440;BME280;11387;51.612;7.210;2023-05-01T00:51:09;100866.09;;;8.41;67.43
22440;BME280;11387;51.612;7.210;2023-05-01T00:53:39;100866.41;;;8.24;68.57
22440;BME280;11387;51.612;7.210;2023-05-01T00:56:08;100859.91;;;8.15;68.54
22440;BME280;11387;51.612;7.210;2023-05-01T00:58:38;100868.88;;;8.16;69.13
22440;BME280;11387;51.612;7.210;2023-05-01T01:01:07;100855.81;;;8.07;69.13
22440;BME280;11387;51.612;7.210;2023-05-01T01:03:37;100859.63;;;8.01;69.89
22440;BME280;11387;51.612;7.210;2023-05-01T01:06:06;100857.19;;;8.00;69.55
22440;BME280;11387;51.612;7.210;2023-05-01T01:08:37;100851.25;;;7.88;69.80
22440;BME280;11387;51.612;7.210;2023-05-01T01:11:10;100852.88;;;7.78;70.67
22440;BME280;11387;51.612;7.210;2023-05-01T01:13:42;100845.78;;;7.77;70.96
22440;BME280;11387;51.612;7.210;2023-05-01T01:16:15;100845.25;;;7.70;71.06
22440;BME280;11387;51.612;7.210;2023-05-01T01:18:51;100840.09;;;7.64;71.17
22440;BME280;11387;51.612;7.210;2023-05-01T01:21:29;100843.91;;;7.58;71.61
22440;BME280;11387;51.612;7.210;2023-05-01T01:24:11;100836.28;;;7.55;71.69
22440;BME280;11387;51.612;7.210;2023-05-01T01:26:53;100836.03;;;7.51;72.28
22440;BME280;11387;51.612;7.210;2023-05-01T01:29:39;100826.50;;;7.43;71.90
22440;BME280;11387;51.612;7.210;2023-05-01T01:32:19;100825.94;;;7.41;72.27
22440;BME280;11387;51.612;7.210;2023-05-01T01:34:57;100822.94;;;7.38;72.24
22440;BME280;11387;51.612;7.210;2023-05-01T01:37:29;100827.31;;;7.39;71.86
22440;BME280;11387;51.612;7.210;2023-05-01T01:40:05;100825.13;;;7.36;72.49
22440;BME280;11387;51.612;7.210;2023-05-01T01:42:36;100820.75;;;7.35;72.50
22440;BME280;11387;51.612;7.210;2023-05-01T01:45:07;100822.44;;;7.31;72.46
22440;BME280;11387;51.612;7.210;2023-05-01T01:47:39;100814.81;;;7.28;72.94
22440;BME280;11387;51.612;7.210;2023-05-01T01:50:10;100822.13;;;7.22;72.61
22440;BME280;11387;51.612;7.210;2023-05-01T01:52:41;100813.72;;;7.24;72.98
22440;BME280;11387;51.612;7.210;2023-05-01T01:55:12;100810.72;;;7.25;72.69
22440;BME280;11387;51.612;7.210;2023-05-01T01:57:42;100806.63;;;7.23;72.78
22440;BME280;11387;51.612;7.210;2023-05-01T02:00:13;100796.84;;;7.27;72.71
22440;BME280;11387;51.612;7.210;2023-05-01T02:02:42;100798.19;;;7.34;72.91
22440;BME280;11387;51.612;7.210;2023-05-01T02:05:14;100794.38;;;7.35;73.26
22440;BME280;11387;51.612;7.210;2023-05-01T02:07:44;100796.53;;;7.59;72.08
22440;BME280;11387;51.612;7.210;2023-05-01T02:10:14;100794.38;;;7.56;72.37
22440;BME280;11387;51.612;7.210;2023-05-01T02:12:45;100783.19;;;7.62;71.81
22440;BME280;11387;51.612;7.210;2023-05-01T02:15:14;100790.53;;;7.67;72.64
22440;BME280;11387;51.612;7.210;2023-05-01T02:17:44;100783.16;;;7.72;71.93
22440;BME280;11387;51.612;7.210;2023-05-01T02:20:14;100770.09;;;7.74;71.28
22440;BME280;11387;51.612;7.210;2023-05-01T02:22:43;100773.91;;;7.78;71.09
22440;BME280;11387;51.612;7.210;2023-05-01T02:25:13;100771.16;;;7.84;71.03
22440;BME280;11387;51.612;7.210;2023-05-01T02:27:43;100762.16;;;7.88;70.80
22440;BME280;11387;51.612;7.210;2023-05-01T02:30:14;100754.75;;;7.99;70.71
22440;BME280;11387;51.612;7.210;2023-05-01T02:32:43;100759.66;;;8.02;69.73
22440;BME280;11387;51.612;7.210;2023-05-01T02:35:11;100756.91;;;8.07;69.91
22440;BME280;11387;51.612;7.210;2023-05-01T02:37:41;100752.78;;;8.15;69.91
22440;BME280;11387;51.612;7.210;2023-05-01T02:40:11;100749.78;;;8.16;69.60
22440;BME280;11387;51.612;7.210;2023-05-01T02:42:40;100753.59;;;8.20;69.50
22440;BME280;11387;51.612;7.210;2023-05-01T02:45:10;100752.75;;;8.25;69.02
22440;BME280;11387;51.612;7.210;2023-05-01T02:47:45;100748.63;;;8.27;69.37
22440;BME280;11387;51.612;7.210;2023-05-01T02:50:15;100746.72;;;8.33;69.22
22440;BME280;11387;51.612;7.210;2023-05-01T02:52:46;100748.56;;;8.48;68.94
22440;BME280;11387;51.612;7.210;2023-05-01T02:55:15;100750.75;;;8.51;68.21
22440;BME280;11387;51.612;7.210;2023-05-01T02:57:43;100742.59;;;8.46;68.17
22440;BME280;11387;51.612;7.210;2023-05-01T03:00:12;100735.25;;;8.41;68.59
22440;BME280;11387;51.612;7.210;2023-05-01T03:02:41;100746.44;;;8.39;68.57
22440;BME280;11387;51.612;7.210;2023-05-01T03:05:09;100738.25;;;8.39;68.12
22440;BME280;11387;51.612;7.210;2023-05-01T03:07:38;100736.06;;;8.41;68.45
22440;BME280;11387;51.612;7.210;2023-05-01T03:10:09;100725.72;;;8.38;68.63
22440;BME280;11387;51.612;7.210;2023-05-01T03:12:38;100727.91;;;8.36;68.10
22440;BME280;11387;51.612;7.210;2023-05-01T03:15:07;100714.28;;;8.31;68.79
22440;BME280;11387;51.612;7.210;2023-05-01T03:17:35;100727.38;;;8.29;68.65
22440;BME280;11387;51.612;7.210;2023-05-01T03:20:04;100715.09;;;8.37;68.84
22440;BME280;11387;51.612;7.210;2023-05-01T03:22:33;100714.25;;;8.41;68.17
22440;BME280;11387;51.612;7.210;2023-05-01T03:25:02;100708.28;;;8.34;68.14
22440;BME280;11387;51.612;7.210;2023-05-01T03:27:32;100705.56;;;8.29;68.69
22440;BME280;11387;51.612;7.210;2023-05-01T03:30:01;100697.38;;;8.34;69.49
22440;BME280;11387;51.612;7.210;2023-05-01T03:32:30;100702.31;;;8.32;68.91
22440;BME280;11387;51.612;7.210;2023-05-01T03:34:58;100695.75;;;8.33;68.82
22440;BME280;11387;51.612;7.210;2023-05-01T03:37:27;100702.56;;;8.31;69.31
22440;BME280;11387;51.612;7.210;2023-05-01T03:39:56;100693.28;;;8.37;68.88
22440;BME280;11387;51.612;7.210;2023-05-01T03:42:25;100692.19;;;8.38;68.96
22440;BME280;11387;51.612;7.210;2023-05-01T03:44:54;100688.56;;;8.53;68.57
22440;BME280;11387;51.612;7.210;2023-05-01T03:47:23;100689.03;;;8.60;68.56
22440;BME280;11387;51.612;7.210;2023-05-01T03:49:51;100683.94;;;8.53;68.38
22440;BME280;11387;51.612;7.210;2023-05-01T03:52:20;100683.94;;;8.53;68.90
22440;BME280;11387;51.612;7.210;2023-05-01T03:54:49;100685.06;;;8.47;69.13
22440;BME280;11387;51.612;7.210;2023-05-01T03:57:17;100681.13;;;8.58;68.80
22440;BME280;11387;51.612;7.210;2023-05-01T03:59:46;100681.66;;;8.60;69.16
22440;BME280;11387;51.612;7.210;2023-05-01T04:02:16;100678.78;;;8.47;69.37
22440;BME280;11387;51.612;7.210;2023-05-01T04:04:45;100672.50;;;8.46;69.50
22440;BME280;11387;51.612;7.210;2023-05-01T04:07:13;100679.91;;;8.40;69.27
22440;BME280;11387;51.612;7.210;2023-05-01T04:09:42;100673.38;;;8.36;68.90
22440;BME280;11387;51.612;7.210;2023-05-01T04:12:10;100678.84;;;8.36;69.40
22440;BME280;11387;51.612;7.210;2023-05-01T04:14:39;100674.47;;;8.30;69.73
22440;BME280;11387;51.612;7.210;2023-05-01T04:17:09;100673.91;;;8.38;69.82
22440;BME280;11387;51.612;7.210;2023-05-01T04:19:39;100672.84;;;8.29;69.34
22440;BME280;11387;51.612;7.210;2023-05-01T04:22:08;100669.03;;;8.30;69.63
22440;BME280;11387;51.612;7.210;2023-05-01T04:24:36;100662.56;;;8.21;70.06
22440;BME280;11387;51.612;7.210;2023-05-01T04:27:04;100670.75;;;8.21;69.98
22440;BME280;11387;51.612;7.210;2023-05-01T04:29:33;100667.16;;;8.26;69.79
22440;BME280;11387;51.612;7.210;2023-05-01T04:32:01;100668.56;;;8.23;69.97
22440;BME280;11387;51.612;7.210;2023-05-01T04:35:05;100663.31;;;8.27;70.29
22440;BME280;11387;51.612;7.210;2023-05-01T04:37:35;100663.56;;;8.40;70.17
22440;BME280;11387;51.612;7.210;2023-05-01T04:40:04;100664.94;;;8.38;70.09
22440;BME280;11387;51.612;7.210;2023-05-01T04:42:36;100662.19;;;8.38;69.58
22440;BME280;11387;51.612;7.210;2023-05-01T04:45:05;100666.03;;;8.37;69.64
22440;BME280;11387;51.612;7.210;2023-05-01T04:47:34;100668.19;;;8.40;69.94
22440;BME280;11387;51.612;7.210;2023-05-01T04:50:02;100660.81;;;8.40;69.93
22440;BME280;11387;51.612;7.210;2023-05-01T04:52:32;100658.56;;;8.53;69.48
22440;BME280;11387;51.612;7.210;2023-05-01T04:55:01;100668.41;;;8.49;70.03
22440;BME280;11387;51.612;7.210;2023-05-01T04:57:30;100658.59;;;8.48;70.05
22440;BME280;11387;51.612;7.210;2023-05-01T04:59:59;100659.66;;;8.52;69.72
22440;BME280;11387;51.612;7.210;2023-05-01T05:02:27;100661.19;;;8.63;69.55
22440;BME280;11387;51.612;7.210;2023-05-01T05:04:57;100660.34;;;8.67;69.81
22440;BME280;11387;51.612;7.210;2023-05-01T05:07:25;100654.53;;;8.79;69.29
22440;BME280;11387;51.612;7.210;2023-05-01T05:09:55;100656.53;;;8.97;69.12
22440;BME280;11387;51.612;7.210;2023-05-01T05:12:24;100658.94;;;9.04;68.47
22440;BME280;11387;51.612;7.210;2023-05-01T05:14:52;100653.78;;;9.02;68.42
22440;BME280;11387;51.612;7.210;2023-05-01T05:17:21;100663.00;;;9.06;68.38
22440;BME280;11387;51.612;7.210;2023-05-01T05:19:49;100666.84;;;9.05;68.33
22440;BME280;11387;51.612;7.210;2023-05-01T05:22:18;100655.84;;;9.16;68.18
22440;BME280;11387;51.612;7.210;2023-05-01T05:24:46;100663.34;;;9.29;68.16
22440;BME280;11387;51.612;7.210;2023-05-01T05:27:42;100656.66;;;9.40;68.02
22440;BME280;11387;51.612;7.210;2023-05-01T05:30:11;100655.84;;;9.63;67.77
22440;BME280;11387;51.612;7.210;2023-05-01T05:32:43;100659.63;;;9.67;66.90
22440;BME280;11387;51.612;7.210;2023-05-01T05:35:11;100660.56;;;9.58;67.22
22440;BME280;11387;51.612;7.210;2023-05-01T05:37:40;100652.00;;;9.64;67.34
22440;BME280;11387;51.612;7.210;2023-05-01T05:40:40;100651.59;;;9.76;66.99
22440;BME280;11387;51.612;7.210;2023-05-01T05:43:10;100650.78;;;9.75;66.54
22440;BME280;11387;51.612;7.210;2023-05-01T05:45:38;100659.50;;;9.77;66.18
22440;BME280;11387;51.612;7.210;2023-05-01T05:48:07;100653.31;;;9.91;66.38
22440;BME280;11387;51.612;7.210;2023-05-01T05:50:35;100654.81;;;10.02;66.32
22440;BME280;11387;51.612;7.210;2023-05-01T05:53:04;100652.03;;;10.07;66.35
22440;BME280;11387;51.612;7.210;2023-05-01T05:55:33;100654.13;;;10.10;66.12
22440;BME280;11387;51.612;7.210;2023-05-01T05:58:01;100652.94;;;10.21;66.13
22440;BME280;11387;51.612;7.210;2023-05-01T06:00:31;100650.41;;;10.43;65.07
22440;BME280;11387;51.612;7.210;2023-05-01T06:02:59;100648.09;;;10.69;64.13
22440;BME280;11387;51.612;7.210;2023-05-01T06:05:28;100645.41;;;10.83;63.91
22440;BME280;11387;51.612;7.210;2023-05-01T06:07:57;100643.53;;;10.97;63.44
22440;BME280;11387;51.612;7.210;2023-05-01T06:10:25;100652.28;;;11.27;63.40
22440;BME280;11387;51.612;7.210;2023-05-01T06:12:54;100644.19;;;11.49;63.09
22440;BME280;11387;51.612;7.210;2023-05-01T06:15:40;100639.19;;;11.65;62.82
22440;BME280;11387;51.612;7.210;2023-05-01T06:18:09;100646.66;;;11.78;61.85
22440;BME280;11387;51.612;7.210;2023-05-01T06:20:38;100646.50;;;11.69;62.71
22440;BME280;11387;51.612;7.210;2023-05-01T06:23:06;100639.22;;;11.92;61.58
22440;BME280;11387;51.612;7.210;2023-05-01T06:25:36;100641.72;;;12.02;62.36
22440;BME280;11387;51.612;7.210;2023-05-01T06:28:04;100645.41;;;11.70;63.38
22440;BME280;11387;51.612;7.210;2023-05-01T06:30:33;100650.19;;;11.78;63.50
22440;BME280;11387;51.612;7.210;2023-05-01T06:33:03;100640.94;;;11.74;64.15
22440;BME280;11387;51.612;7.210;2023-05-01T06:35:32;100642.78;;;11.79;64.98
22440;BME280;11387;51.612;7.210;2023-05-01T06:38:00;100643.38;;;11.48;66.05
22440;BME280;11387;51.612;7.210;2023-05-01T06:40:29;100633.63;;;11.56;66.15
22440;BME280;11387;51.612;7.210;2023-05-01T06:43:00;100644.00;;;11.87;65.44
22440;BME280;11387;51.612;7.210;2023-05-01T06:45:29;100640.16;;;11.88;65.00
22440;BME280;11387;51.612;7.210;2023-05-01T06:47:58;100637.66;;;12.00;64.70
22440;BME280;11387;51.612;7.210;2023-05-01T06:50:28;100641.72;;;12.16;64.18
22440;BME280;11387;51.612;7.210;2023-05-01T06:52:56;100640.91;;;12.16;64.82
22440;BME280;11387;51.612;7.210;2023-05-01T06:55:27;100641.63;;;12.43;63.87
22440;BME280;11387;51.612;7.210;2023-05-01T06:57:59;100642.13;;;12.68;62.90
22440;BME280;11387;51.612;7.210;2023-05-01T07:00:38;100630.00;;;12.91;62.49
22440;BME280;11387;51.612;7.210;2023-05-01T07:03:07;100638.47;;;13.03;62.56
22440;BME280;11387;51.612;7.210;2023-05-01T07:05:37;100636.72;;;13.30;62.14
22440;BME280;11387;51.612;7.210;2023-05-01T07:08:07;100634.88;;;13.56;60.80
22440;BME280;11387;51.612;7.210;2023-05-01T07:10:36;100631.91;;;13.92;60.47
22440;BME280;11387;51.612;7.210;2023-05-01T07:13:08;100638.41;;;14.22;59.69
22440;BME280;11387;51.612;7.210;2023-05-01T07:15:37;100635.06;;;14.60;58.88
22440;BME280;11387;51.612;7.210;2023-05-01T07:18:05;100637.22;;;15.09;57.65
22440;BME280;11387;51.612;7.210;2023-05-01T07:20:34;100628.53;;;15.37;56.60
22440;BME280;11387;51.612;7.210;2023-05-01T07:23:04;100635.66;;;15.38;55.48
22440;BME280;11387;51.612;7.210;2023-05-01T07:25:33;100638.13;;;15.31;55.32
22440;BME280;11387;51.612;7.210;2023-05-01T07:28:03;100634.16;;;15.87;54.34
22440;BME280;11387;51.612;7.210;2023-05-01T07:30:34;100637.97;;;16.45;53.24
22440;BME280;11387;51.612;7.210;2023-05-01T07:33:27;100636.44;;;16.89;50.01
22440;BME280;11387;51.612;7.210;2023-05-01T07:35:56;100635.88;;;16.96;50.58
22440;BME280;11387;51.612;7.210;2023-05-01T07:38:26;100637.13;;;17.31;49.72
22440;BME280;11387;51.612;7.210;2023-05-01T07:40:54;100633.47;;;17.39;49.61
22440;BME280;11387;51.612;7.210;2023-05-01T07:43:23;100637.75;;;17.04;49.60
22440;BME280;11387;51.612;7.210;2023-05-01T07:45:55;100630.22;;;16.92;50.53
22440;BME280;11387;51.612;7.210;2023-05-01T07:48:25;100632.03;;;16.76;50.35
22440;BME280;11387;51.612;7.210;2023-05-01T07:50:54;100626.84;;;17.07;49.76
22440;BME280;11387;51.612;7.210;2023-05-01T07:53:22;100625.09;;;17.72;47.79
22440;BME280;11387;51.612;7.210;2023-05-01T07:55:52;100619.03;;;18.07;46.78
22440;BME280;11387;51.612;7.210;2023-05-01T07:58:21;100612.31;;;18.88;45.17
22440;BME280;11387;51.612;7.210;2023-05-01T08:00:49;100625.66;;;19.30;42.74
22440;BME280;11387;51.612;7.210;2023-05-01T08:03:18;100622.28;;;19.83;42.29
22440;BME280;11387;51.612;7.210;2023-05-01T08:05:46;100623.47;;;20.17;41.69
22440;BME280;11387;51.612;7.210;2023-05-01T08:08:15;100616.78;;;20.22;40.73
22440;BME280;11387;51.612;7.210;2023-05-01T08:10:47;100614.31;;;20.17;40.27
22440;BME280;11387;51.612;7.210;2023-05-01T08:13:17;100609.00;;;19.93;40.63
22440;BME280;11387;51.612;7.210;2023-05-01T08:15:46;100611.00;;;19.76;41.60
22440;BME280;11387;51.612;7.210;2023-05-01T08:18:15;100603.47;;;19.77;40.74
22440;BME280;11387;51.612;7.210;2023-05-01T08:20:47;100611.16;;;21.38;38.29
22440;BME280;11387;51.612;7.210;2023-05-01T08:23:16;100612.28;;;22.09;37.11
22440;BME280;11387;51.612;7.210;2023-05-01T08:25:44;100599.28;;;22.50;35.36
22440;BME280;11387;51.612;7.210;2023-05-01T08:28:18;100602.22;;;22.64;35.58
22440;BME280;11387;51.612;7.210;2023-05-01T08:30:47;100604.28;;;22.07;35.90
22440;BME280;11387;51.612;7.210;2023-05-01T08:33:17;100602.28;;;21.81;36.41
22440;BME280;11387;51.612;7.210;2023-05-01T08:35:46;100599.94;;;21.83;36.59
22440;BME280;11387;51.612;7.210;2023-05-01T08:38:14;100597.38;;;22.91;35.05
22440;BME280;11387;51.612;7.210;2023-05-01T08:40:46;100591.53;;;22.70;33.72
22440;BME280;11387;51.612;7.210;2023-05-01T08:43:14;100595.28;;;24.31;31.93
22440;BME280;11387;51.612;7.210;2023-05-01T08:45:45;100597.16;;;25.74;30.00
22440;BME280;11387;51.612;7.210;2023-05-01T08:48:15;100588.72;;;26.94;27.41
22440;BME280;11387;51.612;7.210;2023-05-01T08:50:45;100578.84;;;27.30;26.88
22440;BME280;11387;51.612;7.210;2023-05-01T08:53:14;100583.50;;;27.51;25.73
22440;BME280;11387;51.612;7.210;2023-05-01T08:55:44;100593.44;;;28.72;25.34
22440;BME280;11387;51.612;7.210;2023-05-01T08:58:13;100595.88;;;28.02;24.72
22440;BME280;11387;51.612;7.210;2023-05-01T09:00:46;100588.22;;;29.01;24.41
22440;BME280;11387;51.612;7.210;2023-05-01T09:03:14;100583.44;;;29.48;23.79
22440;BME280;11387;51.612;7.210;2023-05-01T09:05:44;100581.06;;;30.33;23.28
22440;BME280;11387;51.612;7.210;2023-05-01T09:08:13;100586.34;;;30.11;23.13
22440;BME280;11387;51.612;7.210;2023-05-01T09:10:43;100578.63;;;29.92;22.59
22440;BME280;11387;51.612;7.210;2023-05-01T09:13:12;100583.22;;;29.62;23.22
22440;BME280;11387;51.612;7.210;2023-05-01T09:15:41;100572.69;;;27.91;24.70
22440;BME280;11387;51.612;7.210;2023-05-01T09:18:12;100576.31;;;28.90;23.92
22440;BME280;11387;51.612;7.210;2023-05-01T09:20:41;100575.75;;;29.25;23.31
22440;BME280;11387;51.612;7.210;2023-05-01T09:23:10;100571.03;;;30.88;22.79
22440;BME280;11387;51.612;7.210;2023-05-01T09:25:38;100569.13;;;31.33;22.27
22440;BME280;11387;51.612;7.210;2023-05-01T09:28:07;100570.44;;;31.45;20.33
22440;BME280;11387;51.612;7.210;2023-05-01T09:30:37;100573.94;;;31.81;20.01
22440;BME280;11387;51.612;7.210;2023-05-01T09:33:06;100570.97;;;33.83;19.74
22440;BME280;11387;51.612;7.210;2023-05-01T09:35:49;100567.03;;;35.17;19.01
22440;BME280;11387;51.612;7.210;2023-05-01T09:38:18;100566.88;;;35.97;17.01
22440;BME280;11387;51.612;7.210;2023-05-01T09:40:47;100566.75;;;33.74;18.03
22440;BME280;11387;51.612;7.210;2023-05-01T09:43:22;100566.88;;;34.27;17.85
22440;BME280;11387;51.612;7.210;2023-05-01T09:46:01;100559.38;;;33.42;18.63
22440;BME280;11387;51.612;7.210;2023-05-01T09:48:31;100562.97;;;30.86;20.28
22440;BME280;11387;51.612;7.210;2023-05-01T09:53:47;100560.84;;;31.88;20.46
22440;BME280;11387;51.612;7.210;2023-05-01T09:56:16;100559.06;;;31.48;20.70
22440;BME280;11387;51.612;7.210;2023-05-01T09:58:45;100555.47;;;32.47;20.10
22440;BME280;11387;51.612;7.210;2023-05-01T10:01:14;100562.88;;;34.16;18.42
22440;BME280;11387;51.612;7.210;2023-05-01T10:03:44;100561.78;;;35.46;17.40
22440;BME280;11387;51.612;7.210;2023-05-01T10:06:25;100554.84;;;36.29;17.18
22440;BME280;11387;51.612;7.210;2023-05-01T10:08:56;100543.13;;;36.88;15.37
22440;BME280;11387;51.612;7.210;2023-05-01T10:11:25;100549.63;;;37.21;14.80
22440;BME280;11387;51.612;7.210;2023-05-01T10:14:04;100549.16;;;36.81;15.62
22440;BME280;11387;51.612;7.210;2023-05-01T10:16:34;100551.03;;;35.59;16.15
22440;BME280;11387;51.612;7.210;2023-05-01T10:19:04;100555.63;;;34.98;17.06
22440;BME280;11387;51.612;7.210;2023-05-01T10:21:33;100543.13;;;36.36;15.99
22440;BME280;11387;51.612;7.210;2023-05-01T10:24:04;100554.78;;;37.32;15.85
22440;BME280;11387;51.612;7.210;2023-05-01T10:26:34;100552.91;;;36.44;15.12
22440;BME280;11387;51.612;7.210;2023-05-01T10:29:03;100548.94;;;37.50;15.53
22440;BME280;11387;51.612;7.210;2023-05-01T10:31:32;100553.03;;;37.97;14.31
22440;BME280;11387;51.612;7.210;2023-05-01T10:34:02;100547.50;;;36.47;15.34
22440;BME280;11387;51.612;7.210;2023-05-01T10:36:31;100540.50;;;35.10;17.29
22440;BME280;11387;51.612;7.210;2023-05-01T10:39:03;100544.38;;;34.11;17.69
22440;BME280;11387;51.612;7.210;2023-05-01T10:44:28;100536.97;;;31.89;20.02
22440;BME280;11387;51.612;7.210;2023-05-01T10:46:56;100532.75;;;30.67;20.78
22440;BME280;11387;51.612;7.210;2023-05-01T10:49:28;100528.00;;;30.96;20.95
22440;BME280;11387;51.612;7.210;2023-05-01T10:52:17;100531.53;;;31.00;21.21
22440;BME280;11387;51.612;7.210;2023-05-01T10:54:47;100530.31;;;30.85;20.22
22440;BME280;11387;51.612;7.210;2023-05-01T10:57:15;100526.88;;;30.02;21.07
22440;BME280;11387;51.612;7.210;2023-05-01T11:00:13;100518.34;;;28.92;22.45
22440;BME280;11387;51.612;7.210;2023-05-01T11:02:42;100512.38;;;27.16;23.85
22440;BME280;11387;51.612;7.210;2023-05-01T11:05:10;100520.53;;;26.27;25.42
22440;BME280;11387;51.612;7.210;2023-05-01T11:07:39;100516.75;;;25.68;26.10
22440;BME280;11387;51.612;7.210;2023-05-01T11:12:53;100513.50;;;26.64;26.38
22440;BME280;11387;51.612;7.210;2023-05-01T11:15:26;100512.59;;;27.33;24.75
22440;BME280;11387;51.612;7.210;2023-05-01T11:17:55;100517.28;;;27.02;26.31
22440;BME280;11387;51.612;7.210;2023-05-01T11:23:15;100510.63;;;27.30;25.37
22440;BME280;11387;51.612;7.210;2023-05-01T11:25:44;100500.41;;;27.50;26.26
22440;BME280;11387;51.612;7.210;2023-05-01T11:28:19;100510.72;;;28.01;23.98
22440;BME280;11387;51.612;7.210;2023-05-01T11:30:49;100502.22;;;28.39;23.58
22440;BME280;11387;51.612;7.210;2023-05-01T11:33:22;100513.69;;;29.29;22.05
22440;BME280;11387;51.612;7.210;2023-05-01T11:35:55;100501.88;;;29.14;22.14
22440;BME280;11387;51.612;7.210;2023-05-01T11:38:24;100506.69;;;29.13;21.95
22440;BME280;11387;51.612;7.210;2023-05-01T11:40:53;100510.97;;;28.44;22.55
22440;BME280;11387;51.612;7.210;2023-05-01T11:43:24;100501.53;;;27.19;23.73
22440;BME280;11387;51.612;7.210;2023-05-01T11:45:53;100509.00;;;26.80;24.25
22440;BME280;11387;51.612;7.210;2023-05-01T11:48:29;100502.69;;;25.78;25.84
22440;BME280;11387;51.612;7.210;2023-05-01T11:50:58;100503.56;;;25.11;26.04
22440;BME280;11387;51.612;7.210;2023-05-01T11:53:27;100496.84;;;26.35;24.77
22440;BME280;11387;51.612;7.210;2023-05-01T11:55:55;100501.00;;;28.06;23.20
22440;BME280;11387;51.612;7.210;2023-05-01T11:58:30;100488.81;;;30.10;20.63
22440;BME280;11387;51.612;7.210;2023-05-01T12:01:00;100493.97;;;29.52;20.76
22440;BME280;11387;51.612;7.210;2023-05-01T12:03:33;100490.72;;;27.92;22.75
22440;BME280;11387;51.612;7.210;2023-05-01T12:06:08;100488.38;;;26.49;25.70
22440;BME280;11387;51.612;7.210;2023-05-01T12:08:40;100491.13;;;27.12;23.66
22440;BME280;11387;51.612;7.210;2023-05-01T12:11:09;100486.28;;;26.61;23.90
22440;BME280;11387;51.612;7.210;2023-05-01T12:13:40;100480.53;;;27.71;23.39
22440;BME280;11387;51.612;7.210;2023-05-01T12:16:08;100477.91;;;29.49;20.72
22440;BME280;11387;51.612;7.210;2023-05-01T12:18:38;100481.31;;;29.37;20.39
22440;BME280;11387;51.612;7.210;2023-05-01T12:21:07;100482.03;;;28.71;21.20
22440;BME280;11387;51.612;7.210;2023-05-01T12:23:42;100469.59;;;29.19;20.71
22440;BME280;11387;51.612;7.210;2023-05-01T12:26:14;100474.84;;;27.78;22.50
22440;BME280;11387;51.612;7.210;2023-05-01T12:28:53;100470.75;;;27.01;23.39
22440;BME280;11387;51.612;7.210;2023-05-01T12:31:22;100472.97;;;27.24;23.93
22440;BME280;11387;51.612;7.210;2023-05-01T12:33:51;100468.91;;;26.14;25.02
22440;BME280;11387;51.612;7.210;2023-05-01T12:36:21;100473.56;;;25.15;25.71
22440;BME280;11387;51.612;7.210;2023-05-01T12:38:56;100470.69;;;24.48;26.88
22440;BME280;11387;51.612;7.210;2023-05-01T12:41:36;100469.69;;;23.91;28.05
22440;BME280;11387;51.612;7.210;2023-05-01T12:44:22;100472.03;;;23.74;28.49
22440;BME280;11387;51.612;7.210;2023-05-01T12:46:52;100464.09;;;23.83;29.02
22440;BME280;11387;51.612;7.210;2023-05-01T12:49:25;100473.00;;;24.21;28.27
22440;BME280;11387;51.612;7.210;2023-05-01T12:51:54;100470.41;;;23.73;28.05
22440;BME280;11387;51.612;7.210;2023-05-01T12:54:23;100467.72;;;22.78;29.79
22440;BME280;11387;51.612;7.210;2023-05-01T12:56:52;100469.63;;;22.70;29.72
22440;BME280;11387;51.612;7.210;2023-05-01T12:59:23;100462.31;;;22.55;30.54
22440;BME280;11387;51.612;7.210;2023-05-01T13:01:57;100462.34;;;22.59;31.02
22440;BME280;11387;51.612;7.210;2023-05-01T13:04:27;100457.88;;;22.91;28.81
22440;BME280;11387;51.612;7.210;2023-05-01T13:06:58;100454.44;;;23.70;27.64
22440;BME280;11387;51.612;7.210;2023-05-01T13:09:29;100453.09;;;24.47;26.70
22440;BME280;11387;51.612;7.210;2023-05-01T13:11:59;100463.53;;;24.86;25.81
22440;BME280;11387;51.612;7.210;2023-05-01T13:14:35;100454.75;;;24.63;26.20
22440;BME280;11387;51.612;7.210;2023-05-01T13:17:05;100459.94;;;24.78;26.68
22440;BME280;11387;51.612;7.210;2023-05-01T13:19:55;100447.13;;;24.81;26.13
22440;BME280;11387;51.612;7.210;2023-05-01T13:22:28;100445.16;;;24.89;26.16
22440;BME280;11387;51.612;7.210;2023-05-01T13:24:58;100442.78;;;25.01;26.87